Time;durP1;ratioP1;P1;durP2;ratioP2;P2;SDS_P1;SDS_P2;PMS_P1;PMS_P2;Temp;Humidity;BMP_temperature;BMP_pressure;BME280_temperature;BME280_humidity;BME280_pressure;Samples;Min_cycle;Max_cycle;Signal;HPM_P1;HPM_P2
2023/03/12 00:01:32;;;;;;;;;;;;;;;19.95;54.34;99805.63;7400564;19;1038;-43
2023/03/12 00:04:00;;;;;;;;;;;;;;;19.87;54.69;99801.06;7399956;19;1266;-43
2023/03/12 00:06:28;;;;;;;;;;;;;;;19.76;54.80;99810.28;7400006;19;1165;-43
2023/03/12 00:08:57;;;;;;;;;;;;;;;19.71;55.01;99796.50;7400231;19;935;-43
2023/03/12 00:11:29;;;;;;;;;;;;;;;19.78;54.74;99794.88;7398092;19;1858;-44
2023/03/12 00:13:59;;;;;;;;;;;;;;;19.86;54.62;99796.72;7399696;19;1118;-43
2023/03/12 00:16:28;;;;;;;;;;;;;;;19.81;54.70;99807.09;7399578;19;963;-43
2023/03/12 00:18:57;;;;;;;;;;;;;;;19.72;54.83;99814.28;7400373;19;1007;-43
2023/03/12 00:21:26;;;;;;;;;;;;;;;19.76;54.96;99826.38;7399760;19;975;-43
2023/03/12 00:23:55;;;;;;;;;;;;;;;19.83;54.68;99822.03;7399482;19;1263;-43
2023/03/12 00:26:24;;;;;;;;;;;;;;;19.96;54.33;99831.47;7399322;19;1047;-43
2023/03/12 00:28:55;;;;;;;;;;;;;;;19.92;54.59;99814.00;7399553;19;1496;-43
2023/03/12 00:31:26;;;;;;;;;;;;;;;19.80;55.05;99811.63;7398540;19;1846;-43
2023/03/12 00:33:54;;;;;;;;;;;;;;;19.79;55.08;99804.56;7398141;19;1026;-43
2023/03/12 00:36:24;;;;;;;;;;;;;;;19.81;54.66;99809.78;7398936;19;1000;-43
2023/03/12 00:38:52;;;;;;;;;;;;;;;19.88;54.47;99810.81;7398862;19;1037;-43
2023/03/12 00:41:21;;;;;;;;;;;;;;;19.74;55.14;99809.59;7398744;19;1990;-43
2023/03/12 00:43:49;;;;;;;;;;;;;;;19.74;54.91;99811.47;7399637;19;951;-43
2023/03/12 00:46:21;;;;;;;;;;;;;;;19.81;55.17;99826.72;7398492;19;1063;-43
2023/03/12 00:48:49;;;;;;;;;;;;;;;19.93;54.32;99816.50;7399454;19;1033;-43
2023/03/12 00:51:17;;;;;;;;;;;;;;;20.00;54.37;99805.97;7397252;19;1861;-43
2023/03/12 00:53:46;;;;;;;;;;;;;;;19.93;54.29;99821.03;7399253;19;1065;-43
2023/03/12 00:56:14;;;;;;;;;;;;;;;19.88;54.75;99818.03;7398668;19;991;-43
2023/03/12 00:58:44;;;;;;;;;;;;;;;19.92;54.52;99814.00;7398915;19;979;-43
2023/03/12 01:01:13;;;;;;;;;;;;;;;19.88;54.92;99801.94;7398907;19;1022;-43
2023/03/12 01:03:44;;;;;;;;;;;;;;;19.92;54.63;99809.47;7398029;19;1042;-43
2023/03/12 01:06:12;;;;;;;;;;;;;;;19.79;55.00;99801.88;7397532;19;1319;-43
2023/03/12 01:08:40;;;;;;;;;;;;;;;19.75;54.98;99788.97;7398631;19;994;-43
2023/03/12 01:11:09;;;;;;;;;;;;;;;19.80;54.77;99795.53;7397734;19;1849;-44
2023/03/12 01:13:38;;;;;;;;;;;;;;;19.99;54.63;99798.91;7397735;19;1063;-43
2023/03/12 01:16:07;;;;;;;;;;;;;;;19.99;54.42;99793.53;7397588;19;1040;-43
2023/03/12 01:18:35;;;;;;;;;;;;;;;19.93;54.64;99811.13;7397594;19;1028;-43
2023/03/12 01:21:06;;;;;;;;;;;;;;;19.77;54.96;99798.53;7398190;19;1018;-43
2023/03/12 01:23:36;;;;;;;;;;;;;;;19.92;55.01;99792.53;7398369;19;983;-43
2023/03/12 01:26:04;;;;;;;;;;;;;;;19.97;54.56;99774.09;7397396;19;1051;-43
2023/03/12 01:28:32;;;;;;;;;;;;;;;19.91;54.74;99785.50;7397303;19;1089;-44
2023/03/12 01:31:07;;;;;;;;;;;;;;;19.85;54.86;99787.81;7396545;19;1850;-43
2023/03/12 01:33:36;;;;;;;;;;;;;;;19.76;54.65;99790.66;7397820;19;947;-43
2023/03/12 01:36:16;;;;;;;;;;;;;;;19.82;54.75;99782.78;7397075;19;1106;-43
2023/03/12 01:38:45;;;;;;;;;;;;;;;19.96;54.41;99792.03;7397727;19;1035;-43
2023/03/12 01:41:13;;;;;;;;;;;;;;;20.04;54.21;99807.31;7396987;19;1039;-43
2023/03/12 01:43:42;;;;;;;;;;;;;;;19.98;54.34;99791.88;7397626;19;1007;-43
2023/03/12 01:46:26;;;;;;;;;;;;;;;19.85;54.77;99814.66;7399349;19;1026;-43
2023/03/12 01:48:56;;;;;;;;;;;;;;;19.92;54.37;99814.84;7404474;19;1039;-44
2023/03/12 01:51:28;;;;;;;;;;;;;;;19.96;54.55;99818.88;7403291;19;1857;-43
2023/03/12 01:53:59;;;;;;;;;;;;;;;19.89;54.74;99835.78;7404320;19;1877;-44
2023/03/12 01:56:29;;;;;;;;;;;;;;;19.89;54.80;99836.63;7404991;19;1133;-43
2023/03/12 01:59:00;;;;;;;;;;;;;;;19.95;54.50;99849.38;7404182;19;1059;-43
2023/03/12 02:01:29;;;;;;;;;;;;;;;19.99;54.32;99825.75;7404105;19;1055;-44
2023/03/12 02:04:00;;;;;;;;;;;;;;;20.11;54.08;99834.31;7404724;19;960;-43
2023/03/12 02:06:33;;;;;;;;;;;;;;;19.97;54.43;99854.59;7404108;19;1191;-43
2023/03/12 02:09:02;;;;;;;;;;;;;;;19.86;54.68;99848.53;7403754;19;1035;-44
2023/03/12 02:11:31;;;;;;;;;;;;;;;19.93;54.38;99843.34;7402119;19;1841;-43
2023/03/12 02:13:59;;;;;;;;;;;;;;;19.97;54.56;99865.31;7403744;19;1067;-43
2023/03/12 02:16:27;;;;;;;;;;;;;;;19.98;54.70;99872.38;7404285;19;1018;-43
2023/03/12 02:18:57;;;;;;;;;;;;;;;19.89;54.48;99868.81;7404338;19;1058;-44
2023/03/12 02:21:26;;;;;;;;;;;;;;;19.89;54.42;99870.69;7403332;19;1149;-43
2023/03/12 02:24:03;;;;;;;;;;;;;;;19.97;54.50;99873.38;7403895;19;1057;-43
2023/03/12 02:26:35;;;;;;;;;;;;;;;20.04;54.17;99872.56;7403827;19;967;-43
2023/03/12 02:29:04;;;;;;;;;;;;;;;20.09;54.18;99885.47;7404153;19;1184;-44
2023/03/12 02:31:36;;;;;;;;;;;;;;;19.96;54.45;99882.44;7401750;19;1838;-43
2023/03/12 02:34:08;;;;;;;;;;;;;;;19.89;54.63;99889.44;7403577;19;1054;-43
2023/03/12 02:36:36;;;;;;;;;;;;;;;19.92;54.76;99889.16;7403047;19;1281;-43
2023/03/12 02:39:05;;;;;;;;;;;;;;;20.01;54.50;99890.81;7402850;19;1043;-44
2023/03/12 02:41:38;;;;;;;;;;;;;;;19.99;54.63;99895.53;7403270;19;959;-43
2023/03/12 02:44:10;;;;;;;;;;;;;;;19.93;54.80;99906.91;7403362;19;1034;-43
2023/03/12 02:46:41;;;;;;;;;;;;;;;19.89;54.66;99906.38;7403094;19;1030;-43
2023/03/12 02:49:10;;;;;;;;;;;;;;;20.04;54.54;99914.66;7403484;19;960;-43
2023/03/12 02:51:40;;;;;;;;;;;;;;;20.19;54.19;99915.72;7401138;19;1838;-43
2023/03/12 02:54:09;;;;;;;;;;;;;;;20.11;53.94;99913.00;7402959;19;1014;-43
2023/03/12 02:56:41;;;;;;;;;;;;;;;19.98;54.55;99937.63;7401166;19;1368;-43
2023/03/12 02:59:12;;;;;;;;;;;;;;;20.02;54.46;99922.03;7402693;19;1034;-43
2023/03/12 03:01:41;;;;;;;;;;;;;;;20.05;54.42;99935.13;7402073;19;1850;-43
2023/03/12 03:04:11;;;;;;;;;;;;;;;20.10;54.31;99934.66;7403028;19;1010;-43
2023/03/12 03:06:40;;;;;;;;;;;;;;;20.05;54.40;99949.41;7402123;19;1175;-43
2023/03/12 03:09:08;;;;;;;;;;;;;;;20.02;54.11;99938.16;7401879;19;1130;-43
2023/03/12 03:11:36;;;;;;;;;;;;;;;20.01;54.63;99947.19;7401057;19;1864;-43
2023/03/12 03:14:07;;;;;;;;;;;;;;;20.07;54.05;99957.28;7401651;19;1103;-43
2023/03/12 03:16:36;;;;;;;;;;;;;;;20.07;54.20;99951.91;7401559;19;1034;-43
2023/03/12 03:19:04;;;;;;;;;;;;;;;20.00;54.47;99958.94;7402443;19;979;-43
2023/03/12 03:21:33;;;;;;;;;;;;;;;19.94;54.44;99962.28;7401849;19;1188;-43
2023/03/12 03:24:02;;;;;;;;;;;;;;;19.99;54.13;99962.59;7401421;19;1940;-43
2023/03/12 03:26:30;;;;;;;;;;;;;;;20.01;54.18;99965.97;7401285;19;1035;-44
2023/03/12 03:28:58;;;;;;;;;;;;;;;20.09;54.15;99970.53;7402149;19;1007;-43
2023/03/12 03:31:30;;;;;;;;;;;;;;;20.04;54.16;99966.50;7400695;19;1850;-43
2023/03/12 03:33:58;;;;;;;;;;;;;;;20.03;54.21;99977.38;7401608;19;964;-43
2023/03/12 03:36:27;;;;;;;;;;;;;;;20.05;54.10;99976.25;7400911;19;1051;-44
2023/03/12 03:38:56;;;;;;;;;;;;;;;20.02;54.06;99981.09;7401461;19;1058;-43
2023/03/12 03:41:31;;;;;;;;;;;;;;;20.09;54.11;99974.06;7400882;19;1142;-43
2023/03/12 03:44:01;;;;;;;;;;;;;;;20.03;54.28;99980.06;7401600;19;1022;-43
2023/03/12 03:46:34;;;;;;;;;;;;;;;20.01;54.06;99993.63;7400663;19;1047;-44
2023/03/12 03:49:03;;;;;;;;;;;;;;;20.05;54.44;100002.22;7400557;19;1067;-43
2023/03/12 03:51:31;;;;;;;;;;;;;;;20.10;53.96;100015.19;7399749;19;1822;-43
2023/03/12 03:54:00;;;;;;;;;;;;;;;20.12;54.03;100008.63;7400433;19;1058;-43
2023/03/12 03:56:28;;;;;;;;;;;;;;;20.18;53.80;100015.22;7400337;19;987;-43
2023/03/12 03:58:56;;;;;;;;;;;;;;;20.15;54.07;100016.34;7403703;19;1041;-43
2023/03/12 04:01:25;;;;;;;;;;;;;;;19.40;55.67;100029.47;7400021;19;1051;-43
2023/03/12 04:03:57;;;;;;;;;;;;;;;18.86;57.19;100048.25;7399969;19;1133;-44
2023/03/12 04:06:25;;;;;;;;;;;;;;;18.51;58.21;100047.19;7400218;19;1293;-44
2023/03/12 04:08:55;;;;;;;;;;;;;;;18.31;58.69;100053.66;7397809;19;987;-43
2023/03/12 04:11:23;;;;;;;;;;;;;;;18.29;58.42;100045.75;7399443;19;1846;-43
2023/03/12 04:13:52;;;;;;;;;;;;;;;18.85;57.10;100044.72;7400476;19;1031;-43
2023/03/12 04:16:20;;;;;;;;;;;;;;;19.18;56.27;100046.88;7400431;19;1138;-43
2023/03/12 04:18:49;;;;;;;;;;;;;;;18.68;57.40;100046.38;7399494;19;1137;-43
2023/03/12 04:21:21;;;;;;;;;;;;;;;18.27;58.46;100053.94;7399395;19;1042;-43
2023/03/12 04:23:52;;;;;;;;;;;;;;;18.25;58.30;100050.56;7399322;19;1054;-43
2023/03/12 04:26:21;;;;;;;;;;;;;;;18.90;56.85;100057.69;7400141;19;1042;-44
2023/03/12 04:28:49;;;;;;;;;;;;;;;19.17;56.25;100061.28;7398071;19;3169;-43
2023/03/12 04:31:17;;;;;;;;;;;;;;;19.20;56.17;100077.03;7398813;19;1850;-43
2023/03/12 04:33:46;;;;;;;;;;;;;;;19.06;56.45;100067.72;7398921;19;1055;-43
2023/03/12 04:36:19;;;;;;;;;;;;;;;19.10;56.44;100068.25;7398911;19;1059;-43
2023/03/12 04:38:47;;;;;;;;;;;;;;;19.15;56.28;100079.34;7399722;19;944;-43
2023/03/12 04:41:19;;;;;;;;;;;;;;;19.08;56.28;100058.53;7398786;19;1257;-43
2023/03/12 04:43:47;;;;;;;;;;;;;;;19.10;56.53;100089.69;7399305;19;1050;-43
2023/03/12 04:46:15;;;;;;;;;;;;;;;19.14;56.29;100078.53;7398691;19;1046;-43
2023/03/12 04:48:45;;;;;;;;;;;;;;;19.18;56.02;100093.28;7398614;19;1102;-44
2023/03/12 04:51:14;;;;;;;;;;;;;;;19.12;56.41;100090.38;7398487;19;1842;-44
2023/03/12 04:53:42;;;;;;;;;;;;;;;19.06;56.30;100103.41;7398402;19;1114;-43
2023/03/12 04:56:10;;;;;;;;;;;;;;;19.03;56.39;100113.56;7398409;19;983;-43
2023/03/12 04:58:41;;;;;;;;;;;;;;;19.17;56.23;100106.84;7398157;19;1094;-43
2023/03/12 05:01:14;;;;;;;;;;;;;;;19.30;55.78;100115.34;7398937;19;1022;-44
2023/03/12 05:03:44;;;;;;;;;;;;;;;19.18;56.24;100112.06;7398527;19;1034;-44
2023/03/12 05:06:12;;;;;;;;;;;;;;;19.21;56.06;100135.03;7397787;19;1208;-43
2023/03/12 05:08:41;;;;;;;;;;;;;;;19.13;56.33;100129.59;7398782;19;1034;-43
2023/03/12 05:11:09;;;;;;;;;;;;;;;19.16;56.11;100137.31;7397817;19;1059;-43
2023/03/12 05:13:37;;;;;;;;;;;;;;;19.15;56.31;100138.31;7395983;19;1855;-43
2023/03/12 05:16:09;;;;;;;;;;;;;;;19.18;56.27;100146.91;7397700;19;1133;-43
2023/03/12 05:18:37;;;;;;;;;;;;;;;19.19;56.23;100139.69;7398486;19;1031;-43
2023/03/12 05:21:07;;;;;;;;;;;;;;;19.26;55.99;100157.72;7397087;19;1066;-43
2023/03/12 05:23:38;;;;;;;;;;;;;;;19.28;55.81;100170.97;7397498;19;975;-43
2023/03/12 05:26:06;;;;;;;;;;;;;;;19.26;55.92;100175.63;7397421;19;1024;-43
2023/03/12 05:28:35;;;;;;;;;;;;;;;19.10;56.28;100170.06;7398211;19;960;-43
2023/03/12 05:31:09;;;;;;;;;;;;;;;19.05;56.50;100182.09;7397343;19;1133;-43
2023/03/12 05:33:40;;;;;;;;;;;;;;;19.17;55.99;100181.88;7395773;19;1853;-43
2023/03/12 05:36:09;;;;;;;;;;;;;;;19.31;55.59;100186.72;7397130;19;1090;-43
2023/03/12 05:38:38;;;;;;;;;;;;;;;19.27;55.72;100191.53;7396954;19;1064;-43
2023/03/12 05:41:07;;;;;;;;;;;;;;;19.21;56.18;100204.72;7397561;19;1046;-43
2023/03/12 05:43:35;;;;;;;;;;;;;;;19.19;56.00;100215.59;7396904;19;1066;-43
2023/03/12 05:46:05;;;;;;;;;;;;;;;19.23;55.96;100210.78;7396816;19;1263;-43
2023/03/12 05:48:33;;;;;;;;;;;;;;;19.29;56.04;100215.53;7396899;19;1052;-43
2023/03/12 05:51:04;;;;;;;;;;;;;;;19.19;56.28;100220.09;7396892;19;1145;-43
2023/03/12 05:53:33;;;;;;;;;;;;;;;19.16;56.38;100223.06;7395461;19;1925;-43
2023/03/12 05:56:04;;;;;;;;;;;;;;;19.27;55.66;100218.34;7397109;19;1070;-43
2023/03/12 05:58:32;;;;;;;;;;;;;;;19.34;55.66;100234.69;7396491;19;1054;-44
2023/03/12 06:01:01;;;;;;;;;;;;;;;18.83;56.67;100242.28;7396980;19;1194;-44
2023/03/12 06:03:31;;;;;;;;;;;;;;;18.48;58.06;100250.94;7396891;19;1070;-43
2023/03/12 06:05:59;;;;;;;;;;;;;;;18.31;58.43;100254.38;7396416;19;1039;-43
2023/03/12 06:08:30;;;;;;;;;;;;;;;18.93;56.90;100254.78;7394705;19;1189;-43
2023/03/12 06:10:58;;;;;;;;;;;;;;;19.38;55.55;100262.91;7396600;19;1014;-43
2023/03/12 06:13:27;;;;;;;;;;;;;;;18.96;56.63;100260.72;7394563;19;1842;-44
2023/03/12 06:15:56;;;;;;;;;;;;;;;18.60;57.40;100268.56;7396164;19;1033;-43
2023/03/12 06:18:24;;;;;;;;;;;;;;;18.36;57.86;100281.56;7396079;19;1047;-43
2023/03/12 06:20:53;;;;;;;;;;;;;;;18.90;56.73;100280.06;7395979;19;1110;-43
2023/03/12 06:23:21;;;;;;;;;;;;;;;19.42;55.68;100292.94;7395916;19;1117;-44
2023/03/12 06:25:53;;;;;;;;;;;;;;;19.12;56.34;100297.59;7396317;19;904;-43
2023/03/12 06:28:22;;;;;;;;;;;;;;;18.69;57.25;100298.97;7396647;19;1030;-44
2023/03/12 06:30:50;;;;;;;;;;;;;;;18.43;57.86;100304.09;7395739;19;1054;-44
2023/03/12 06:33:19;;;;;;;;;;;;;;;18.75;57.27;100309.09;7398901;19;1842;-43
2023/03/12 06:35:47;;;;;;;;;;;;;;;19.29;55.70;100322.75;7402966;19;1093;-43
2023/03/12 06:38:15;;;;;;;;;;;;;;;19.59;55.22;100335.00;7405856;19;1059;-44
2023/03/12 06:40:44;;;;;;;;;;;;;;;19.52;55.40;100341.13;7402873;19;1009;-43
2023/03/12 06:43:14;;;;;;;;;;;;;;;19.56;55.43;100323.78;7402776;19;1109;-43
2023/03/12 06:45:43;;;;;;;;;;;;;;;19.60;55.48;100346.63;7403103;19;951;-43
2023/03/12 06:48:12;;;;;;;;;;;;;;;19.54;55.14;100331.97;7402580;19;1136;-43
2023/03/12 06:50:41;;;;;;;;;;;;;;;19.59;55.03;100335.00;7402562;19;1042;-43
2023/03/12 06:53:10;;;;;;;;;;;;;;;19.49;55.52;100326.19;7401012;19;1842;-43
2023/03/12 06:55:38;;;;;;;;;;;;;;;19.52;55.59;100354.53;7402435;19;1038;-43
2023/03/12 06:58:07;;;;;;;;;;;;;;;19.56;55.20;100353.28;7402962;19;959;-43
2023/03/12 07:00:38;;;;;;;;;;;;;;;19.58;55.43;100364.69;7402999;19;963;-43
2023/03/12 07:03:07;;;;;;;;;;;;;;;19.53;55.53;100358.91;7402508;19;1022;-43
2023/03/12 07:05:36;;;;;;;;;;;;;;;19.59;55.40;100394.03;7402052;19;1051;-44
2023/03/12 07:08:04;;;;;;;;;;;;;;;19.58;55.65;100364.69;7400208;19;1121;-43
2023/03/12 07:10:33;;;;;;;;;;;;;;;19.63;55.33;100357.03;7402299;19;1209;-43
2023/03/12 07:13:01;;;;;;;;;;;;;;;19.65;55.21;100360.41;7400600;19;1850;-43
2023/03/12 07:15:29;;;;;;;;;;;;;;;19.62;55.18;100371.44;7402500;19;1058;-43
2023/03/12 07:18:05;;;;;;;;;;;;;;;19.59;55.40;100379.78;7399319;19;1027;-43
2023/03/12 07:20:33;;;;;;;;;;;;;;;19.61;55.39;100369.75;7401582;19;1105;-43
2023/03/12 07:23:03;;;;;;;;;;;;;;;19.68;55.26;100381.56;7401485;19;1248;-43
2023/03/12 07:25:31;;;;;;;;;;;;;;;19.81;54.81;100376.72;7401499;19;1113;-43
2023/03/12 07:27:59;;;;;;;;;;;;;;;19.77;54.96;100391.44;7401448;19;1144;-43
2023/03/12 07:30:32;;;;;;;;;;;;;;;19.71;55.39;100365.19;7401220;19;1177;-44
2023/03/12 07:33:00;;;;;;;;;;;;;;;19.66;55.49;100372.84;7400878;19;1849;-43
2023/03/12 07:35:31;;;;;;;;;;;;;;;19.70;55.34;100384.97;7401401;19;1128;-44
2023/03/12 07:38:00;;;;;;;;;;;;;;;19.80;55.14;100379.56;7400885;19;1145;-44
2023/03/12 07:40:28;;;;;;;;;;;;;;;19.76;54.80;100395.13;7401587;19;1039;-44
2023/03/12 07:42:58;;;;;;;;;;;;;;;19.80;54.96;100388.47;7399890;19;1039;-44
2023/03/12 07:45:26;;;;;;;;;;;;;;;19.80;55.26;100412.59;7398958;19;1039;-44
2023/03/12 07:47:56;;;;;;;;;;;;;;;19.79;54.92;100400.16;7400630;19;1113;-43
2023/03/12 07:50:24;;;;;;;;;;;;;;;19.81;54.86;100387.44;7400581;19;1893;-43
2023/03/12 07:52:55;;;;;;;;;;;;;;;19.84;55.04;100408.63;7400571;19;1871;-43
2023/03/12 07:55:25;;;;;;;;;;;;;;;19.81;54.83;100400.84;7400386;19;1062;-43
2023/03/12 07:57:55;;;;;;;;;;;;;;;19.86;54.97;100419.22;7400357;19;1113;-44
2023/03/12 08:00:23;;;;;;;;;;;;;;;19.84;54.85;100419.34;7400383;19;958;-44
2023/03/12 08:02:53;;;;;;;;;;;;;;;19.84;54.73;100429.25;7401081;19;1022;-43
2023/03/12 08:05:23;;;;;;;;;;;;;;;19.79;55.08;100435.03;7400047;19;1225;-43
2023/03/12 08:07:51;;;;;;;;;;;;;;;19.92;54.81;100447.31;7398883;19;1096;-43
2023/03/12 08:10:24;;;;;;;;;;;;;;;19.92;54.62;100447.31;7399927;19;1050;-44
2023/03/12 08:12:53;;;;;;;;;;;;;;;19.88;54.74;100437.84;7400060;19;1857;-43
2023/03/12 08:15:21;;;;;;;;;;;;;;;19.88;54.74;100451.28;7399680;19;1033;-43
2023/03/12 08:17:50;;;;;;;;;;;;;;;19.94;54.56;100450.69;7399629;19;1039;-43
2023/03/12 08:20:19;;;;;;;;;;;;;;;19.97;54.70;100471.84;7399594;19;1136;-43
2023/03/12 08:22:47;;;;;;;;;;;;;;;20.02;54.78;100469.56;7399395;19;1129;-43
2023/03/12 08:25:19;;;;;;;;;;;;;;;20.00;54.80;100480.44;7399417;19;1034;-43
2023/03/12 08:27:50;;;;;;;;;;;;;;;19.99;54.73;100475.22;7399298;19;1056;-43
2023/03/12 08:30:19;;;;;;;;;;;;;;;19.95;54.76;100506.03;7400268;19;1025;-43
2023/03/12 08:32:48;;;;;;;;;;;;;;;19.98;54.72;100506.56;7399723;19;1861;-44
2023/03/12 08:35:17;;;;;;;;;;;;;;;20.03;54.35;100493.56;7399576;19;1204;-44
2023/03/12 08:37:46;;;;;;;;;;;;;;;20.07;54.27;100496.78;7398976;19;1057;-43
2023/03/12 08:40:15;;;;;;;;;;;;;;;20.14;54.27;100511.31;7398907;19;1144;-44
2023/03/12 08:42:43;;;;;;;;;;;;;;;20.05;54.83;100499.63;7397503;19;1018;-43
2023/03/12 08:45:15;;;;;;;;;;;;;;;20.02;54.88;100502.59;7399667;19;1026;-43
2023/03/12 08:47:43;;;;;;;;;;;;;;;20.03;54.57;100501.63;7398624;19;1113;-44
2023/03/12 08:50:13;;;;;;;;;;;;;;;20.04;54.86;100515.88;7398672;19;1042;-43
2023/03/12 08:52:42;;;;;;;;;;;;;;;20.09;54.52;100528.84;7398310;19;1857;-43
2023/03/12 08:55:11;;;;;;;;;;;;;;;20.05;54.63;100520.25;7397375;19;1093;-43
2023/03/12 08:57:39;;;;;;;;;;;;;;;20.01;54.45;100529.59;7398303;19;1041;-43
2023/03/12 09:00:13;;;;;;;;;;;;;;;19.95;54.88;100540.91;7399191;19;1226;-43
2023/03/12 09:02:44;;;;;;;;;;;;;;;20.01;54.61;100526.91;7398232;19;987;-44
2023/03/12 09:05:13;;;;;;;;;;;;;;;19.97;54.81;100530.88;7398770;19;1035;-43
2023/03/12 09:07:41;;;;;;;;;;;;;;;19.98;54.72;100522.69;7397037;19;1172;-43
2023/03/12 09:10:11;;;;;;;;;;;;;;;19.98;54.82;100525.38;7398459;19;1022;-43
2023/03/12 09:12:40;;;;;;;;;;;;;;;20.00;54.69;100520.69;7397740;19;1861;-44
2023/03/12 09:15:14;;;;;;;;;;;;;;;19.94;54.62;100518.59;7397827;19;1145;-44
2023/03/12 09:17:46;;;;;;;;;;;;;;;19.92;55.16;100528.66;7397774;19;1043;-43
2023/03/12 09:20:15;;;;;;;;;;;;;;;19.91;54.79;100521.56;7398604;19;971;-44
2023/03/12 09:22:44;;;;;;;;;;;;;;;19.89;54.89;100533.44;7398039;19;1041;-44
2023/03/12 09:25:13;;;;;;;;;;;;;;;19.99;54.70;100528.88;7398059;19;1025;-44
2023/03/12 09:27:42;;;;;;;;;;;;;;;19.97;54.97;100529.03;7397924;19;1051;-43
2023/03/12 09:30:12;;;;;;;;;;;;;;;19.98;54.77;100543.31;7398289;19;1015;-43
2023/03/12 09:32:41;;;;;;;;;;;;;;;19.95;54.70;100549.81;7398290;19;1861;-43
2023/03/12 09:35:14;;;;;;;;;;;;;;;20.01;54.53;100529.59;7397219;19;1113;-44
2023/03/12 09:37:43;;;;;;;;;;;;;;;19.99;54.75;100526.19;7398121;19;1042;-43
2023/03/12 09:40:17;;;;;;;;;;;;;;;20.00;54.92;100538.66;7397236;19;1039;-43
2023/03/12 09:42:48;;;;;;;;;;;;;;;20.01;54.92;100551.91;7398057;19;1154;-44
2023/03/12 09:45:18;;;;;;;;;;;;;;;19.97;54.95;100555.88;7397020;19;1059;-44
2023/03/12 09:47:49;;;;;;;;;;;;;;;19.94;54.93;100555.34;7396859;19;1094;-44
2023/03/12 09:50:24;;;;;;;;;;;;;;;19.96;55.07;100566.78;7396918;19;947;-43
2023/03/12 09:52:55;;;;;;;;;;;;;;;20.07;54.67;100571.94;7397523;19;1834;-43
2023/03/12 09:55:25;;;;;;;;;;;;;;;20.10;54.35;100582.41;7397656;19;1022;-43
2023/03/12 09:57:54;;;;;;;;;;;;;;;20.09;54.35;100563.75;7397506;19;994;-43
2023/03/12 10:00:24;;;;;;;;;;;;;;;19.97;54.76;100579.19;7397570;19;1033;-43
2023/03/12 10:03:01;;;;;;;;;;;;;;;19.97;55.02;100565.75;7397037;19;1034;-44
2023/03/12 10:05:38;;;;;;;;;;;;;;;19.96;55.01;100572.97;7396891;19;983;-43
2023/03/12 10:08:09;;;;;;;;;;;;;;;20.06;54.82;100581.84;7399433;19;1117;-43
2023/03/12 10:10:51;;;;;;;;;;;;;;;20.04;54.52;100577.63;7403822;19;1105;-44
2023/03/12 10:13:27;;;;;;;;;;;;;;;20.01;54.88;100568.00;7403391;19;1864;-43
2023/03/12 10:16:02;;;;;;;;;;;;;;;20.00;54.74;100573.53;7403826;19;1054;-43
2023/03/12 10:18:38;;;;;;;;;;;;;;;19.99;54.97;100582.56;7403695;19;1031;-44
2023/03/12 10:21:12;;;;;;;;;;;;;;;20.08;54.60;100592.44;7404468;19;1033;-44
2023/03/12 10:23:49;;;;;;;;;;;;;;;20.15;54.42;100577.41;7403419;19;1043;-43
2023/03/12 10:26:20;;;;;;;;;;;;;;;20.13;54.35;100568.66;7403406;19;1034;-43
2023/03/12 10:28:50;;;;;;;;;;;;;;;19.92;54.86;100573.44;7403877;19;1042;-43
2023/03/12 10:31:21;;;;;;;;;;;;;;;19.84;55.47;100580.34;7403283;19;1035;-43
2023/03/12 10:33:53;;;;;;;;;;;;;;;19.81;55.51;100567.22;7402587;19;1850;-43
2023/03/12 10:36:26;;;;;;;;;;;;;;;19.86;55.28;100581.06;7403640;19;984;-44
2023/03/12 10:38:56;;;;;;;;;;;;;;;19.88;55.03;100586.28;7403916;19;1037;-43
2023/03/12 10:41:27;;;;;;;;;;;;;;;19.76;55.17;100580.25;7402953;19;1042;-43
2023/03/12 10:43:56;;;;;;;;;;;;;;;19.71;55.52;100590.56;7403490;19;1038;-43
2023/03/12 10:46:40;;;;;;;;;;;;;;;19.69;56.03;100592.50;7402785;19;1676;-43
2023/03/12 10:49:25;;;;;;;;;;;;;;;19.67;55.71;100589.13;7403185;19;1058;-43
2023/03/12 10:51:59;;;;;;;;;;;;;;;19.78;55.18;100596.19;7402538;19;1046;-43
2023/03/12 10:54:32;;;;;;;;;;;;;;;19.72;55.64;100594.94;7401033;19;1842;-43
2023/03/12 10:57:00;;;;;;;;;;;;;;;19.67;55.53;100589.97;7402838;19;1035;-44
2023/03/12 10:59:32;;;;;;;;;;;;;;;19.61;55.61;100584.34;7403153;19;1023;-44
2023/03/12 11:02:00;;;;;;;;;;;;;;;19.61;55.90;100603.09;7402142;19;1043;-44
2023/03/12 11:04:30;;;;;;;;;;;;;;;19.66;55.61;100592.81;7402225;19;1867;-43
2023/03/12 11:07:17;;;;;;;;;;;;;;;19.68;55.63;100596.19;7401294;19;1366;-43
2023/03/12 11:09:47;;;;;;;;;;;;;;;19.67;55.65;100599.84;7401979;19;1109;-43
2023/03/12 11:12:25;;;;;;;;;;;;;;;19.64;55.86;100594.78;7401907;19;1120;-43
2023/03/12 11:14:53;;;;;;;;;;;;;;;19.56;55.77;100594.66;7400642;19;1841;-44
2023/03/12 11:17:23;;;;;;;;;;;;;;;19.64;55.81;100595.63;7401987;19;976;-43
2023/03/12 11:19:52;;;;;;;;;;;;;;;19.73;55.59;100593.94;7401143;19;1042;-43
2023/03/12 11:22:33;;;;;;;;;;;;;;;19.74;55.50;100584.06;7402241;19;1089;-43
2023/03/12 11:25:04;;;;;;;;;;;;;;;19.78;55.31;100580.09;7401410;19;1098;-43
2023/03/12 11:27:37;;;;;;;;;;;;;;;19.70;55.80;100596.88;7401407;19;1181;-43
2023/03/12 11:30:07;;;;;;;;;;;;;;;19.71;55.89;100576.28;7401258;19;1245;-43
2023/03/12 11:32:37;;;;;;;;;;;;;;;19.70;55.59;100578.09;7401254;19;1000;-44
2023/03/12 11:35:11;;;;;;;;;;;;;;;19.78;55.47;100589.00;7399390;19;1865;-43
2023/03/12 11:37:51;;;;;;;;;;;;;;;19.90;55.43;100580.78;7401037;19;1121;-44
2023/03/12 11:40:31;;;;;;;;;;;;;;;19.92;55.17;100584.16;7401378;19;1038;-43
2023/03/12 11:43:12;;;;;;;;;;;;;;;19.93;55.15;100583.16;7401331;19;1026;-43
2023/03/12 11:45:45;;;;;;;;;;;;;;;19.90;55.46;100578.09;7401401;19;1022;-43
2023/03/12 11:48:22;;;;;;;;;;;;;;;19.96;55.24;100589.09;7401373;19;959;-44
2023/03/12 11:50:57;;;;;;;;;;;;;;;20.09;55.23;100577.16;7401724;19;1018;-43
2023/03/12 11:53:38;;;;;;;;;;;;;;;20.11;54.73;100583.22;7400573;19;1038;-43
2023/03/12 11:56:21;;;;;;;;;;;;;;;20.08;55.18;100586.22;7401295;19;1026;-43
2023/03/12 11:58:57;;;;;;;;;;;;;;;20.08;54.73;100579.00;7400379;19;1121;-43
2023/03/12 12:01:31;;;;;;;;;;;;;;;20.05;54.88;100579.28;7401040;19;1026;-43
2023/03/12 12:04:10;;;;;;;;;;;;;;;20.12;54.91;100583.09;7400142;19;1101;-44
2023/03/12 12:06:42;;;;;;;;;;;;;;;20.13;55.14;100567.81;7399512;19;1121;-44
2023/03/12 12:09:23;;;;;;;;;;;;;;;20.12;55.13;100575.03;7400875;19;978;-43
2023/03/12 12:11:56;;;;;;;;;;;;;;;20.10;55.15;100574.34;7399897;19;1023;-43
2023/03/12 12:14:32;;;;;;;;;;;;;;;20.11;55.04;100583.22;7399822;19;1854;-44
2023/03/12 12:17:08;;;;;;;;;;;;;;;20.18;54.70;100569.06;7400495;19;1030;-43
2023/03/12 12:19:45;;;;;;;;;;;;;;;20.10;55.01;100577.03;7400403;19;975;-43
2023/03/12 12:22:28;;;;;;;;;;;;;;;20.23;54.72;100579.38;7399506;19;1505;-43
2023/03/12 12:25:12;;;;;;;;;;;;;;;20.30;54.33;100568.91;7399560;19;1246;-43
2023/03/12 12:27:42;;;;;;;;;;;;;;;20.31;54.53;100573.25;7399363;19;919;-43
2023/03/12 12:30:20;;;;;;;;;;;;;;;20.26;54.60;100553.06;7397506;19;1133;-43
2023/03/12 12:32:57;;;;;;;;;;;;;;;20.16;54.83;100560.31;7399248;19;1038;-43
2023/03/12 12:35:28;;;;;;;;;;;;;;;20.14;54.97;100573.06;7398500;19;1849;-43
2023/03/12 12:37:59;;;;;;;;;;;;;;;20.22;54.86;100566.94;7399902;19;1079;-43
2023/03/12 12:40:32;;;;;;;;;;;;;;;20.35;54.42;100561.22;7399810;19;956;-43
2023/03/12 12:43:07;;;;;;;;;;;;;;;20.44;54.40;100571.06;7399731;19;958;-43
2023/03/12 12:45:38;;;;;;;;;;;;;;;20.37;54.43;100583.41;7398819;19;2119;-43
2023/03/12 12:48:09;;;;;;;;;;;;;;;20.32;54.45;100585.69;7398593;19;1063;-43
2023/03/12 12:50:40;;;;;;;;;;;;;;;20.35;54.30;100588.06;7398636;19;996;-43
2023/03/12 12:53:15;;;;;;;;;;;;;;;20.22;54.77;100589.25;7398675;19;1051;-43
2023/03/12 12:55:51;;;;;;;;;;;;;;;20.25;54.51;100602.41;7397113;19;1862;-44
2023/03/12 12:58:22;;;;;;;;;;;;;;;20.38;54.56;100595.84;7399201;19;1031;-44
2023/03/12 13:00:52;;;;;;;;;;;;;;;20.37;54.48;100592.31;7399146;19;1074;-43
2023/03/12 13:03:22;;;;;;;;;;;;;;;20.37;54.39;100599.50;7399098;19;1022;-43
2023/03/12 13:05:58;;;;;;;;;;;;;;;20.35;54.47;100601.50;7398953;19;1113;-43
2023/03/12 13:08:42;;;;;;;;;;;;;;;20.34;54.30;100606.03;7397594;19;1166;-43